aviador You're here:

SAAR Decoded Metar

ROSARIO in ARGENTINA
Report Time2018-05-20 19:00:00
UTC Time2018-05-20 19:39:14
Flight Rules vfr VFR
Wind340° at 06 kt
W.Decomp.*RWY 02: 4.9 kt HW 3.4 kt LCW
W.Rank340° ranks 13
Current wind is below 340° avg. (7.8)
Visibility9999 m
Phenomena:N/A
Clouds:N/A
Expected CloudBase > 3,600 ft AGL from Temp-Dew spread
CeilingNone
Temp17°C (ISA +2)
Dew Point08°C (56% RH)
AAT14.4°C
QNH1015 hPa
Density Alt417 ft
Elevation82 ft
Report Wrong Elevation
Raw Report
METAR SAAR 201900Z 34006KT CAVOK 17/08 Q1015=

Extra information for SAAR:More info

Metar Taf Metar & Taf Last 4 Metars F.Rules Stats Wind Profile Meteogram Temp Stats Airport Information Weather charts Add Link Nearby VenuesMetar ALERT Operation Metar Decoded Social comments